sensor_id;sensor_type;location;lat;lon;timestamp;P1;durP1;ratioP1;P2;durP2;ratioP2
55216;SDS011;41086;46.736;15.666;2023-11-22T00:00:17;551.15;;;101.93;;
55216;SDS011;41086;46.736;15.666;2023-11-22T00:02:44;433.10;;;80.35;;
55216;SDS011;41086;46.736;15.666;2023-11-22T00:18:07;420.50;;;73.70;;
55216;SDS011;41086;46.736;15.666;2023-11-22T00:20:34;620.90;;;100.57;;
55216;SDS011;41086;46.736;15.666;2023-11-22T00:23:01;490.73;;;78.47;;
55216;SDS011;41086;46.736;15.666;2023-11-22T00:25:29;489.40;;;74.43;;
55216;SDS011;41086;46.736;15.666;2023-11-22T00:27:56;547.50;;;84.68;;
55216;SDS011;41086;46.736;15.666;2023-11-22T00:30:25;479.03;;;79.93;;
55216;SDS011;41086;46.736;15.666;2023-11-22T00:32:52;476.35;;;71.60;;
55216;SDS011;41086;46.736;15.666;2023-11-22T00:35:18;479.38;;;72.60;;
55216;SDS011;41086;46.736;15.666;2023-11-22T00:37:45;463.13;;;69.60;;
55216;SDS011;41086;46.736;15.666;2023-11-22T00:40:12;535.05;;;82.13;;
55216;SDS011;41086;46.736;15.666;2023-11-22T00:42:39;418.90;;;62.97;;
55216;SDS011;41086;46.736;15.666;2023-11-22T00:45:09;404.35;;;63.20;;
55216;SDS011;41086;46.736;15.666;2023-11-22T00:47:37;394.65;;;61.10;;
55216;SDS011;41086;46.736;15.666;2023-11-22T00:50:04;363.13;;;52.85;;
55216;SDS011;41086;46.736;15.666;2023-11-22T00:52:31;387.20;;;51.03;;
55216;SDS011;41086;46.736;15.666;2023-11-22T00:54:58;286.77;;;37.28;;
55216;SDS011;41086;46.736;15.666;2023-11-22T00:57:25;233.90;;;29.40;;
55216;SDS011;41086;46.736;15.666;2023-11-22T00:59:53;207.85;;;26.60;;
55216;SDS011;41086;46.736;15.666;2023-11-22T01:02:22;198.27;;;24.40;;
55216;SDS011;41086;46.736;15.666;2023-11-22T01:04:49;1.17;;;0.98;;
55216;SDS011;41086;46.736;15.666;2023-11-22T01:07:16;0.57;;;0.57;;
55216;SDS011;41086;46.736;15.666;2023-11-22T01:09:43;1.13;;;0.90;;
55216;SDS011;41086;46.736;15.666;2023-11-22T01:12:10;1.80;;;0.47;;
55216;SDS011;41086;46.736;15.666;2023-11-22T01:14:38;0.52;;;0.50;;
55216;SDS011;41086;46.736;15.666;2023-11-22T01:17:05;0.93;;;0.63;;
55216;SDS011;41086;46.736;15.666;2023-11-22T01:19:32;1.27;;;0.80;;
55216;SDS011;41086;46.736;15.666;2023-11-22T01:22:00;0.30;;;0.30;;
55216;SDS011;41086;46.736;15.666;2023-11-22T01:24:31;1.30;;;1.10;;
55216;SDS011;41086;46.736;15.666;2023-11-22T01:26:58;0.68;;;0.68;;
55216;SDS011;41086;46.736;15.666;2023-11-22T01:29:24;0.70;;;0.70;;
55216;SDS011;41086;46.736;15.666;2023-11-22T01:31:53;0.57;;;0.57;;
55216;SDS011;41086;46.736;15.666;2023-11-22T01:34:20;1.33;;;0.90;;
55216;SDS011;41086;46.736;15.666;2023-11-22T01:36:49;0.65;;;0.65;;
55216;SDS011;41086;46.736;15.666;2023-11-22T01:39:16;0.25;;;0.25;;
55216;SDS011;41086;46.736;15.666;2023-11-22T01:41:44;1.00;;;0.70;;
55216;SDS011;41086;46.736;15.666;2023-11-22T01:44:11;2.00;;;1.20;;
55216;SDS011;41086;46.736;15.666;2023-11-22T01:46:38;0.43;;;0.43;;
55216;SDS011;41086;46.736;15.666;2023-11-22T01:49:05;1.15;;;1.05;;
55216;SDS011;41086;46.736;15.666;2023-11-22T01:51:33;0.20;;;0.20;;
55216;SDS011;41086;46.736;15.666;2023-11-22T01:54:00;0.43;;;0.43;;
55216;SDS011;41086;46.736;15.666;2023-11-22T01:56:27;2.60;;;2.00;;
55216;SDS011;41086;46.736;15.666;2023-11-22T01:58:55;0.70;;;0.50;;
55216;SDS011;41086;46.736;15.666;2023-11-22T02:01:24;0.60;;;0.50;;
55216;SDS011;41086;46.736;15.666;2023-11-22T02:03:53;1.00;;;0.80;;
55216;SDS011;41086;46.736;15.666;2023-11-22T02:06:20;0.80;;;0.40;;
55216;SDS011;41086;46.736;15.666;2023-11-22T02:08:48;1.95;;;1.05;;
55216;SDS011;41086;46.736;15.666;2023-11-22T02:11:18;0.60;;;0.60;;
55216;SDS011;41086;46.736;15.666;2023-11-22T02:13:48;1.45;;;1.05;;
55216;SDS011;41086;46.736;15.666;2023-11-22T02:16:21;0.68;;;0.68;;
55216;SDS011;41086;46.736;15.666;2023-11-22T02:18:48;0.50;;;0.50;;
55216;SDS011;41086;46.736;15.666;2023-11-22T02:21:18;0.57;;;0.57;;
55216;SDS011;41086;46.736;15.666;2023-11-22T02:23:48;0.87;;;0.87;;
55216;SDS011;41086;46.736;15.666;2023-11-22T02:26:15;0.32;;;0.32;;
55216;SDS011;41086;46.736;15.666;2023-11-22T02:28:44;1.10;;;0.45;;
55216;SDS011;41086;46.736;15.666;2023-11-22T02:31:11;1.10;;;0.80;;
55216;SDS011;41086;46.736;15.666;2023-11-22T02:33:39;0.77;;;0.77;;
55216;SDS011;41086;46.736;15.666;2023-11-22T02:36:06;1.30;;;0.60;;
55216;SDS011;41086;46.736;15.666;2023-11-22T02:38:34;0.65;;;0.65;;
55216;SDS011;41086;46.736;15.666;2023-11-22T02:41:03;1.35;;;1.25;;
55216;SDS011;41086;46.736;15.666;2023-11-22T02:43:31;0.70;;;0.67;;
55216;SDS011;41086;46.736;15.666;2023-11-22T02:45:57;0.47;;;0.47;;
55216;SDS011;41086;46.736;15.666;2023-11-22T02:48:24;1.35;;;1.25;;
55216;SDS011;41086;46.736;15.666;2023-11-22T02:50:51;2.80;;;1.30;;
55216;SDS011;41086;46.736;15.666;2023-11-22T02:53:20;1.10;;;0.88;;
55216;SDS011;41086;46.736;15.666;2023-11-22T02:55:48;0.70;;;0.40;;
55216;SDS011;41086;46.736;15.666;2023-11-22T02:58:15;0.70;;;0.70;;
55216;SDS011;41086;46.736;15.666;2023-11-22T03:00:44;0.90;;;0.70;;
55216;SDS011;41086;46.736;15.666;2023-11-22T03:03:11;1.15;;;1.13;;
55216;SDS011;41086;46.736;15.666;2023-11-22T03:05:39;0.60;;;0.60;;
55216;SDS011;41086;46.736;15.666;2023-11-22T03:08:06;0.68;;;0.68;;
55216;SDS011;41086;46.736;15.666;2023-11-22T03:10:37;0.50;;;0.50;;
55216;SDS011;41086;46.736;15.666;2023-11-22T03:13:05;0.50;;;0.50;;
55216;SDS011;41086;46.736;15.666;2023-11-22T03:15:31;1.50;;;0.80;;
55216;SDS011;41086;46.736;15.666;2023-11-22T03:17:58;0.75;;;0.75;;
55216;SDS011;41086;46.736;15.666;2023-11-22T03:20:25;0.47;;;0.47;;
55216;SDS011;41086;46.736;15.666;2023-11-22T03:22:53;0.65;;;0.65;;
55216;SDS011;41086;46.736;15.666;2023-11-22T03:25:20;1.60;;;1.50;;
55216;SDS011;41086;46.736;15.666;2023-11-22T03:27:46;0.43;;;0.43;;
55216;SDS011;41086;46.736;15.666;2023-11-22T03:30:14;0.45;;;0.45;;
55216;SDS011;41086;46.736;15.666;2023-11-22T03:32:41;0.30;;;0.20;;
55216;SDS011;41086;46.736;15.666;2023-11-22T03:35:10;0.73;;;0.68;;
55216;SDS011;41086;46.736;15.666;2023-11-22T03:37:38;1.05;;;1.02;;
55216;SDS011;41086;46.736;15.666;2023-11-22T03:40:05;3.58;;;1.70;;
55216;SDS011;41086;46.736;15.666;2023-11-22T03:42:34;0.43;;;0.43;;
55216;SDS011;41086;46.736;15.666;2023-11-22T03:45:03;0.68;;;0.52;;
55216;SDS011;41086;46.736;15.666;2023-11-22T03:47:31;0.30;;;0.30;;
55216;SDS011;41086;46.736;15.666;2023-11-22T03:50:00;2.30;;;1.75;;
55216;SDS011;41086;46.736;15.666;2023-11-22T03:52:27;0.70;;;0.70;;
55216;SDS011;41086;46.736;15.666;2023-11-22T03:54:54;0.40;;;0.40;;
55216;SDS011;41086;46.736;15.666;2023-11-22T03:57:21;1.95;;;1.15;;
55216;SDS011;41086;46.736;15.666;2023-11-22T03:59:47;0.98;;;0.75;;
55216;SDS011;41086;46.736;15.666;2023-11-22T04:02:15;0.68;;;0.68;;
55216;SDS011;41086;46.736;15.666;2023-11-22T04:04:42;2.05;;;0.77;;
55216;SDS011;41086;46.736;15.666;2023-11-22T04:07:09;0.75;;;0.65;;
55216;SDS011;41086;46.736;15.666;2023-11-22T04:09:36;3.30;;;0.70;;
55216;SDS011;41086;46.736;15.666;2023-11-22T04:12:03;1.60;;;0.80;;
55216;SDS011;41086;46.736;15.666;2023-11-22T04:14:30;0.25;;;0.25;;
55216;SDS011;41086;46.736;15.666;2023-11-22T04:16:58;1.13;;;1.05;;
55216;SDS011;41086;46.736;15.666;2023-11-22T04:19:25;0.50;;;0.50;;
55216;SDS011;41086;46.736;15.666;2023-11-22T04:21:52;0.63;;;0.55;;
55216;SDS011;41086;46.736;15.666;2023-11-22T04:24:20;0.63;;;0.63;;
55216;SDS011;41086;46.736;15.666;2023-11-22T04:26:47;1.05;;;0.52;;
55216;SDS011;41086;46.736;15.666;2023-11-22T04:29:14;0.30;;;0.30;;
55216;SDS011;41086;46.736;15.666;2023-11-22T04:31:43;3.75;;;1.55;;
55216;SDS011;41086;46.736;15.666;2023-11-22T04:34:10;0.73;;;0.73;;
55216;SDS011;41086;46.736;15.666;2023-11-22T04:36:37;1.60;;;0.80;;
55216;SDS011;41086;46.736;15.666;2023-11-22T04:39:05;1.10;;;1.00;;
55216;SDS011;41086;46.736;15.666;2023-11-22T04:41:34;1.40;;;1.10;;
55216;SDS011;41086;46.736;15.666;2023-11-22T04:44:01;0.77;;;0.43;;
55216;SDS011;41086;46.736;15.666;2023-11-22T04:46:28;0.30;;;0.30;;
55216;SDS011;41086;46.736;15.666;2023-11-22T04:48:55;0.38;;;0.38;;
55216;SDS011;41086;46.736;15.666;2023-11-22T04:51:22;0.30;;;0.30;;
55216;SDS011;41086;46.736;15.666;2023-11-22T04:53:50;1.10;;;0.60;;
55216;SDS011;41086;46.736;15.666;2023-11-22T04:56:17;0.20;;;0.20;;
55216;SDS011;41086;46.736;15.666;2023-11-22T04:58:44;2.40;;;0.60;;
55216;SDS011;41086;46.736;15.666;2023-11-22T05:01:11;0.60;;;0.60;;
55216;SDS011;41086;46.736;15.666;2023-11-22T05:03:38;0.40;;;0.40;;
55216;SDS011;41086;46.736;15.666;2023-11-22T05:06:05;0.90;;;0.90;;
55216;SDS011;41086;46.736;15.666;2023-11-22T05:08:32;0.20;;;0.20;;
55216;SDS011;41086;46.736;15.666;2023-11-22T05:10:59;0.28;;;0.28;;
55216;SDS011;41086;46.736;15.666;2023-11-22T05:13:25;0.30;;;0.30;;
55216;SDS011;41086;46.736;15.666;2023-11-22T05:15:56;0.35;;;0.35;;
55216;SDS011;41086;46.736;15.666;2023-11-22T05:18:23;0.47;;;0.47;;
55216;SDS011;41086;46.736;15.666;2023-11-22T05:20:49;0.30;;;0.30;;
55216;SDS011;41086;46.736;15.666;2023-11-22T05:23:16;0.30;;;0.30;;
55216;SDS011;41086;46.736;15.666;2023-11-22T05:25:44;1.00;;;0.57;;
55216;SDS011;41086;46.736;15.666;2023-11-22T05:28:11;0.77;;;0.77;;
55216;SDS011;41086;46.736;15.666;2023-11-22T05:30:38;0.30;;;0.30;;
55216;SDS011;41086;46.736;15.666;2023-11-22T05:33:05;0.60;;;0.60;;
55216;SDS011;41086;46.736;15.666;2023-11-22T05:35:32;0.95;;;0.75;;
55216;SDS011;41086;46.736;15.666;2023-11-22T05:37:59;0.47;;;0.47;;
55216;SDS011;41086;46.736;15.666;2023-11-22T05:40:26;0.70;;;0.70;;
55216;SDS011;41086;46.736;15.666;2023-11-22T05:42:53;0.80;;;0.63;;
55216;SDS011;41086;46.736;15.666;2023-11-22T05:45:20;0.77;;;0.63;;
55216;SDS011;41086;46.736;15.666;2023-11-22T05:47:47;0.30;;;0.30;;
55216;SDS011;41086;46.736;15.666;2023-11-22T05:50:14;0.50;;;0.50;;
55216;SDS011;41086;46.736;15.666;2023-11-22T05:52:41;0.47;;;0.47;;
55216;SDS011;41086;46.736;15.666;2023-11-22T05:55:08;0.40;;;0.40;;
55216;SDS011;41086;46.736;15.666;2023-11-22T05:57:35;0.40;;;0.30;;
55216;SDS011;41086;46.736;15.666;2023-11-22T06:00:02;0.70;;;0.35;;
55216;SDS011;41086;46.736;15.666;2023-11-22T06:02:29;0.40;;;0.40;;
55216;SDS011;41086;46.736;15.666;2023-11-22T06:04:57;0.90;;;0.70;;
55216;SDS011;41086;46.736;15.666;2023-11-22T06:07:24;1.20;;;1.00;;
55216;SDS011;41086;46.736;15.666;2023-11-22T06:09:51;0.60;;;0.60;;
55216;SDS011;41086;46.736;15.666;2023-11-22T06:12:18;0.35;;;0.35;;
55216;SDS011;41086;46.736;15.666;2023-11-22T06:14:46;0.45;;;0.43;;
55216;SDS011;41086;46.736;15.666;2023-11-22T06:17:13;0.50;;;0.50;;
55216;SDS011;41086;46.736;15.666;2023-11-22T06:19:40;0.70;;;0.70;;
55216;SDS011;41086;46.736;15.666;2023-11-22T06:22:07;0.20;;;0.20;;
55216;SDS011;41086;46.736;15.666;2023-11-22T06:24:34;0.30;;;0.30;;
55216;SDS011;41086;46.736;15.666;2023-11-22T06:27:02;0.70;;;0.70;;
55216;SDS011;41086;46.736;15.666;2023-11-22T06:29:30;0.30;;;0.30;;
55216;SDS011;41086;46.736;15.666;2023-11-22T06:31:56;0.40;;;0.40;;
55216;SDS011;41086;46.736;15.666;2023-11-22T06:34:23;0.50;;;0.50;;
55216;SDS011;41086;46.736;15.666;2023-11-22T06:36:50;0.30;;;0.28;;
55216;SDS011;41086;46.736;15.666;2023-11-22T06:39:17;1.00;;;0.90;;
55216;SDS011;41086;46.736;15.666;2023-11-22T06:41:44;0.70;;;0.70;;
55216;SDS011;41086;46.736;15.666;2023-11-22T06:44:10;0.55;;;0.50;;
55216;SDS011;41086;46.736;15.666;2023-11-22T06:46:37;0.40;;;0.40;;
55216;SDS011;41086;46.736;15.666;2023-11-22T06:49:04;0.50;;;0.50;;
55216;SDS011;41086;46.736;15.666;2023-11-22T06:51:31;0.30;;;0.30;;
55216;SDS011;41086;46.736;15.666;2023-11-22T06:53:58;0.32;;;0.32;;
55216;SDS011;41086;46.736;15.666;2023-11-22T06:56:27;0.50;;;0.50;;
55216;SDS011;41086;46.736;15.666;2023-11-22T06:58:54;0.40;;;0.40;;
55216;SDS011;41086;46.736;15.666;2023-11-22T07:01:24;0.65;;;0.65;;
55216;SDS011;41086;46.736;15.666;2023-11-22T07:03:54;0.38;;;0.38;;
55216;SDS011;41086;46.736;15.666;2023-11-22T07:06:21;0.30;;;0.30;;
55216;SDS011;41086;46.736;15.666;2023-11-22T07:08:53;0.45;;;0.45;;
55216;SDS011;41086;46.736;15.666;2023-11-22T07:11:24;0.55;;;0.55;;
55216;SDS011;41086;46.736;15.666;2023-11-22T07:13:53;0.20;;;0.20;;
55216;SDS011;41086;46.736;15.666;2023-11-22T07:16:20;0.20;;;0.20;;
55216;SDS011;41086;46.736;15.666;2023-11-22T07:18:48;0.40;;;0.40;;
55216;SDS011;41086;46.736;15.666;2023-11-22T07:21:15;0.25;;;0.25;;
55216;SDS011;41086;46.736;15.666;2023-11-22T07:23:43;0.70;;;0.60;;
55216;SDS011;41086;46.736;15.666;2023-11-22T07:26:11;0.38;;;0.38;;
55216;SDS011;41086;46.736;15.666;2023-11-22T07:28:40;3.15;;;0.85;;
55216;SDS011;41086;46.736;15.666;2023-11-22T07:31:08;0.20;;;0.20;;
55216;SDS011;41086;46.736;15.666;2023-11-22T07:33:37;0.30;;;0.30;;
55216;SDS011;41086;46.736;15.666;2023-11-22T07:36:05;0.10;;;0.10;;
55216;SDS011;41086;46.736;15.666;2023-11-22T07:38:32;0.10;;;0.10;;
55216;SDS011;41086;46.736;15.666;2023-11-22T07:41:01;0.33;;;0.33;;
55216;SDS011;41086;46.736;15.666;2023-11-22T07:43:28;0.25;;;0.25;;
55216;SDS011;41086;46.736;15.666;2023-11-22T07:45:54;0.45;;;0.45;;
55216;SDS011;41086;46.736;15.666;2023-11-22T07:48:21;1.50;;;0.80;;
55216;SDS011;41086;46.736;15.666;2023-11-22T07:50:49;0.50;;;0.50;;
55216;SDS011;41086;46.736;15.666;2023-11-22T07:53:17;0.50;;;0.50;;
55216;SDS011;41086;46.736;15.666;2023-11-22T07:55:44;0.40;;;0.40;;
55216;SDS011;41086;46.736;15.666;2023-11-22T07:58:11;0.80;;;0.60;;
55216;SDS011;41086;46.736;15.666;2023-11-22T08:00:38;1.60;;;0.60;;
55216;SDS011;41086;46.736;15.666;2023-11-22T08:03:08;0.40;;;0.40;;
55216;SDS011;41086;46.736;15.666;2023-11-22T08:05:35;0.30;;;0.30;;
55216;SDS011;41086;46.736;15.666;2023-11-22T08:08:04;0.60;;;0.60;;
55216;SDS011;41086;46.736;15.666;2023-11-22T08:10:35;0.15;;;0.15;;
55216;SDS011;41086;46.736;15.666;2023-11-22T08:13:02;0.20;;;0.20;;
55216;SDS011;41086;46.736;15.666;2023-11-22T08:15:30;0.35;;;0.35;;
55216;SDS011;41086;46.736;15.666;2023-11-22T08:18:03;0.20;;;0.20;;
55216;SDS011;41086;46.736;15.666;2023-11-22T08:20:30;0.28;;;0.28;;
55216;SDS011;41086;46.736;15.666;2023-11-22T08:22:57;0.10;;;0.10;;
55216;SDS011;41086;46.736;15.666;2023-11-22T08:25:24;0.30;;;0.30;;
55216;SDS011;41086;46.736;15.666;2023-11-22T08:27:51;0.90;;;0.80;;
55216;SDS011;41086;46.736;15.666;2023-11-22T08:30:17;0.82;;;0.80;;
55216;SDS011;41086;46.736;15.666;2023-11-22T08:32:45;0.40;;;0.30;;
55216;SDS011;41086;46.736;15.666;2023-11-22T08:35:18;0.50;;;0.43;;
55216;SDS011;41086;46.736;15.666;2023-11-22T08:37:45;0.80;;;0.80;;
55216;SDS011;41086;46.736;15.666;2023-11-22T08:40:13;0.43;;;0.40;;
55216;SDS011;41086;46.736;15.666;2023-11-22T08:42:42;0.68;;;0.68;;
55216;SDS011;41086;46.736;15.666;2023-11-22T08:45:09;0.50;;;0.35;;
55216;SDS011;41086;46.736;15.666;2023-11-22T08:47:39;0.77;;;0.67;;
55216;SDS011;41086;46.736;15.666;2023-11-22T08:50:07;0.40;;;0.30;;
55216;SDS011;41086;46.736;15.666;2023-11-22T08:52:40;0.50;;;0.50;;
55216;SDS011;41086;46.736;15.666;2023-11-22T08:55:08;0.38;;;0.38;;
55216;SDS011;41086;46.736;15.666;2023-11-22T08:57:38;0.90;;;0.40;;
55216;SDS011;41086;46.736;15.666;2023-11-22T09:00:05;0.50;;;0.50;;
55216;SDS011;41086;46.736;15.666;2023-11-22T09:02:36;0.25;;;0.25;;
55216;SDS011;41086;46.736;15.666;2023-11-22T09:05:04;0.50;;;0.50;;
55216;SDS011;41086;46.736;15.666;2023-11-22T09:07:34;0.60;;;0.60;;
55216;SDS011;41086;46.736;15.666;2023-11-22T09:10:03;0.50;;;0.50;;
55216;SDS011;41086;46.736;15.666;2023-11-22T09:12:42;0.40;;;0.40;;
55216;SDS011;41086;46.736;15.666;2023-11-22T09:15:11;0.22;;;0.22;;
55216;SDS011;41086;46.736;15.666;2023-11-22T09:17:44;0.35;;;0.35;;
55216;SDS011;41086;46.736;15.666;2023-11-22T09:20:13;3.33;;;1.73;;
55216;SDS011;41086;46.736;15.666;2023-11-22T09:22:45;0.20;;;0.20;;
55216;SDS011;41086;46.736;15.666;2023-11-22T09:25:16;0.40;;;0.40;;
55216;SDS011;41086;46.736;15.666;2023-11-22T09:27:46;0.20;;;0.20;;
55216;SDS011;41086;46.736;15.666;2023-11-22T09:30:21;1.85;;;1.33;;
55216;SDS011;41086;46.736;15.666;2023-11-22T09:33:02;1.30;;;0.70;;
55216;SDS011;41086;46.736;15.666;2023-11-22T09:35:30;0.63;;;0.60;;
55216;SDS011;41086;46.736;15.666;2023-11-22T09:38:03;2.35;;;0.95;;
55216;SDS011;41086;46.736;15.666;2023-11-22T09:40:33;0.98;;;0.65;;
55216;SDS011;41086;46.736;15.666;2023-11-22T09:43:00;1.42;;;1.23;;
55216;SDS011;41086;46.736;15.666;2023-11-22T09:45:29;0.90;;;0.85;;
55216;SDS011;41086;46.736;15.666;2023-11-22T09:47:57;0.80;;;0.80;;
55216;SDS011;41086;46.736;15.666;2023-11-22T09:50:35;0.60;;;0.50;;
55216;SDS011;41086;46.736;15.666;2023-11-22T09:53:19;0.60;;;0.60;;
55216;SDS011;41086;46.736;15.666;2023-11-22T09:55:52;0.50;;;0.20;;
55216;SDS011;41086;46.736;15.666;2023-11-22T09:58:19;0.17;;;0.17;;
55216;SDS011;41086;46.736;15.666;2023-11-22T10:00:47;0.90;;;0.52;;
55216;SDS011;41086;46.736;15.666;2023-11-22T10:03:15;0.45;;;0.38;;
55216;SDS011;41086;46.736;15.666;2023-11-22T10:05:44;0.82;;;0.65;;
55216;SDS011;41086;46.736;15.666;2023-11-22T10:08:11;1.20;;;1.10;;
55216;SDS011;41086;46.736;15.666;2023-11-22T10:10:38;0.50;;;0.30;;
55216;SDS011;41086;46.736;15.666;2023-11-22T10:13:06;0.50;;;0.50;;
55216;SDS011;41086;46.736;15.666;2023-11-22T10:15:33;0.30;;;0.30;;
55216;SDS011;41086;46.736;15.666;2023-11-22T10:18:02;0.50;;;0.50;;
55216;SDS011;41086;46.736;15.666;2023-11-22T10:20:39;0.43;;;0.40;;
55216;SDS011;41086;46.736;15.666;2023-11-22T10:23:08;0.40;;;0.40;;
55216;SDS011;41086;46.736;15.666;2023-11-22T10:25:43;0.20;;;0.20;;
55216;SDS011;41086;46.736;15.666;2023-11-22T10:28:12;1.67;;;1.02;;
55216;SDS011;41086;46.736;15.666;2023-11-22T10:30:39;0.30;;;0.30;;
55216;SDS011;41086;46.736;15.666;2023-11-22T10:33:06;0.10;;;0.10;;
55216;SDS011;41086;46.736;15.666;2023-11-22T10:35:35;0.20;;;0.20;;
55216;SDS011;41086;46.736;15.666;2023-11-22T10:38:02;0.20;;;0.20;;
55216;SDS011;41086;46.736;15.666;2023-11-22T10:40:32;1.00;;;0.90;;
55216;SDS011;41086;46.736;15.666;2023-11-22T10:42:59;111.20;;;48.05;;
55216;SDS011;41086;46.736;15.666;2023-11-22T10:45:27;9.23;;;5.68;;
55216;SDS011;41086;46.736;15.666;2023-11-22T10:48:02;31.38;;;17.42;;
55216;SDS011;41086;46.736;15.666;2023-11-22T10:50:30;8.88;;;4.53;;
55216;SDS011;41086;46.736;15.666;2023-11-22T10:52:57;22.70;;;14.23;;
55216;SDS011;41086;46.736;15.666;2023-11-22T10:55:27;23.27;;;15.32;;
55216;SDS011;41086;46.736;15.666;2023-11-22T10:57:55;6.13;;;4.13;;
55216;SDS011;41086;46.736;15.666;2023-11-22T11:00:29;4.47;;;3.22;;
